sensor_id;sensor_type;location;lat;lon;timestamp;pressure;altitude;pressure_sealevel;temperature;humidity
70127;BME280;57491;42.694;23.314;2023-04-04T00:01:26;93712.84;;;10.11;79.32
70127;BME280;57491;42.694;23.314;2023-04-04T00:03:53;93707.06;;;10.16;79.68
70127;BME280;57491;42.694;23.314;2023-04-04T00:06:20;93708.03;;;10.21;81.06
70127;BME280;57491;42.694;23.314;2023-04-04T00:08:47;93718.72;;;10.38;80.43
70127;BME280;57491;42.694;23.314;2023-04-04T00:11:16;93723.28;;;10.43;80.76
70127;BME280;57491;42.694;23.314;2023-04-04T00:13:43;93723.44;;;10.48;80.43
70127;BME280;57491;42.694;23.314;2023-04-04T00:16:10;93719.25;;;10.47;79.99
70127;BME280;57491;42.694;23.314;2023-04-04T00:18:38;93733.22;;;10.52;78.84
70127;BME280;57491;42.694;23.314;2023-04-04T00:21:05;93731.56;;;10.58;79.64
70127;BME280;57491;42.694;23.314;2023-04-04T00:23:32;93727.94;;;10.59;79.77
70127;BME280;57491;42.694;23.314;2023-04-04T00:25:59;93731.56;;;10.58;78.47
70127;BME280;57491;42.694;23.314;2023-04-04T00:28:27;93726.09;;;10.66;78.85
70127;BME280;57491;42.694;23.314;2023-04-04T00:30:55;93709.13;;;10.63;78.58
70127;BME280;57491;42.694;23.314;2023-04-04T00:33:22;93705.69;;;10.69;78.30
70127;BME280;57491;42.694;23.314;2023-04-04T00:35:52;93698.09;;;10.68;77.98
70127;BME280;57491;42.694;23.314;2023-04-04T00:38:19;93696.34;;;10.62;77.98
70127;BME280;57491;42.694;23.314;2023-04-04T00:40:48;93696.03;;;10.52;78.10
70127;BME280;57491;42.694;23.314;2023-04-04T00:43:16;93683.97;;;10.33;77.91
70127;BME280;57491;42.694;23.314;2023-04-04T00:45:45;93690.25;;;10.18;78.80
70127;BME280;57491;42.694;23.314;2023-04-04T00:48:12;93680.09;;;10.10;76.94
70127;BME280;57491;42.694;23.314;2023-04-04T00:50:39;93683.50;;;10.17;77.38
70127;BME280;57491;42.694;23.314;2023-04-04T00:53:06;93679.84;;;10.25;78.97
70127;BME280;57491;42.694;23.314;2023-04-04T00:55:36;93679.91;;;10.05;79.67
70127;BME280;57491;42.694;23.314;2023-04-04T00:58:03;93675.53;;;10.06;77.88
70127;BME280;57491;42.694;23.314;2023-04-04T01:00:32;93674.38;;;9.95;78.40
70127;BME280;57491;42.694;23.314;2023-04-04T01:03:00;93680.59;;;9.94;79.71
70127;BME280;57491;42.694;23.314;2023-04-04T01:05:30;93677.59;;;9.91;79.28
70127;BME280;57491;42.694;23.314;2023-04-04T01:07:57;93692.41;;;9.90;79.64
70127;BME280;57491;42.694;23.314;2023-04-04T01:10:24;93690.63;;;9.84;79.74
70127;BME280;57491;42.694;23.314;2023-04-04T01:12:51;93694.03;;;9.84;78.67
70127;BME280;57491;42.694;23.314;2023-04-04T01:15:19;93690.84;;;9.82;79.19
70127;BME280;57491;42.694;23.314;2023-04-04T01:17:46;93679.31;;;9.72;78.94
70127;BME280;57491;42.694;23.314;2023-04-04T01:20:18;93694.47;;;9.75;79.66
70127;BME280;57491;42.694;23.314;2023-04-04T01:22:49;93701.31;;;9.63;80.24
70127;BME280;57491;42.694;23.314;2023-04-04T01:25:18;93714.13;;;9.58;80.95
70127;BME280;57491;42.694;23.314;2023-04-04T01:27:47;93707.34;;;9.50;80.28
70127;BME280;57491;42.694;23.314;2023-04-04T01:30:15;93710.16;;;9.42;80.84
70127;BME280;57491;42.694;23.314;2023-04-04T01:32:46;93711.72;;;9.56;82.29
70127;BME280;57491;42.694;23.314;2023-04-04T01:35:22;93699.34;;;9.52;80.92
70127;BME280;57491;42.694;23.314;2023-04-04T01:37:57;93701.38;;;9.50;80.97
70127;BME280;57491;42.694;23.314;2023-04-04T01:40:32;93706.25;;;9.26;81.25
70127;BME280;57491;42.694;23.314;2023-04-04T01:43:01;93693.50;;;9.12;81.99
70127;BME280;57491;42.694;23.314;2023-04-04T01:45:29;93674.31;;;9.19;82.18
70127;BME280;57491;42.694;23.314;2023-04-04T01:47:57;93674.28;;;9.32;83.99
70127;BME280;57491;42.694;23.314;2023-04-04T01:50:24;93672.66;;;9.45;83.32
70127;BME280;57491;42.694;23.314;2023-04-04T01:52:52;93668.66;;;9.49;81.43
70127;BME280;57491;42.694;23.314;2023-04-04T01:55:19;93643.69;;;9.48;80.39
70127;BME280;57491;42.694;23.314;2023-04-04T01:57:46;93646.66;;;9.51;79.94
70127;BME280;57491;42.694;23.314;2023-04-04T02:00:15;93650.88;;;9.52;80.10
70127;BME280;57491;42.694;23.314;2023-04-04T02:02:42;93654.25;;;9.53;79.67
70127;BME280;57491;42.694;23.314;2023-04-04T02:05:09;93648.28;;;9.52;80.96
70127;BME280;57491;42.694;23.314;2023-04-04T02:07:36;93651.41;;;9.61;81.06
70127;BME280;57491;42.694;23.314;2023-04-04T02:10:04;93654.22;;;9.59;81.41
70127;BME280;57491;42.694;23.314;2023-04-04T02:12:31;93655.84;;;9.54;80.78
70127;BME280;57491;42.694;23.314;2023-04-04T02:14:58;93652.47;;;9.47;80.43
70127;BME280;57491;42.694;23.314;2023-04-04T02:17:27;93651.84;;;9.58;81.36
70127;BME280;57491;42.694;23.314;2023-04-04T02:19:54;93648.09;;;9.47;80.60
70127;BME280;57491;42.694;23.314;2023-04-04T02:22:21;93645.31;;;9.49;79.82
70127;BME280;57491;42.694;23.314;2023-04-04T02:24:48;93646.09;;;9.49;80.42
70127;BME280;57491;42.694;23.314;2023-04-04T02:27:15;93640.06;;;9.55;80.65
70127;BME280;57491;42.694;23.314;2023-04-04T02:29:42;93635.91;;;9.54;79.14
70127;BME280;57491;42.694;23.314;2023-04-04T02:32:09;93638.28;;;9.56;79.24
70127;BME280;57491;42.694;23.314;2023-04-04T02:34:37;93639.13;;;9.50;79.37
70127;BME280;57491;42.694;23.314;2023-04-04T02:37:04;93614.41;;;9.40;79.06
70127;BME280;57491;42.694;23.314;2023-04-04T02:39:32;93640.28;;;9.54;78.94
70127;BME280;57491;42.694;23.314;2023-04-04T02:41:59;93649.50;;;9.50;78.06
70127;BME280;57491;42.694;23.314;2023-04-04T02:44:26;93647.53;;;9.45;77.54
70127;BME280;57491;42.694;23.314;2023-04-04T02:46:53;93642.16;;;9.40;78.31
70127;BME280;57491;42.694;23.314;2023-04-04T02:49:20;93659.47;;;9.46;77.96
70127;BME280;57491;42.694;23.314;2023-04-04T02:51:48;93657.06;;;9.51;77.53
70127;BME280;57491;42.694;23.314;2023-04-04T02:54:16;93659.88;;;9.43;76.50
70127;BME280;57491;42.694;23.314;2023-04-04T02:56:43;93654.69;;;9.50;77.71
70127;BME280;57491;42.694;23.314;2023-04-04T02:59:10;93655.91;;;9.40;78.00
70127;BME280;57491;42.694;23.314;2023-04-04T03:01:37;93658.09;;;9.44;78.25
70127;BME280;57491;42.694;23.314;2023-04-04T03:04:04;93649.88;;;9.47;78.81
70127;BME280;57491;42.694;23.314;2023-04-04T03:06:31;93658.22;;;9.55;79.12
70127;BME280;57491;42.694;23.314;2023-04-04T03:09:00;93645.66;;;9.59;79.28
70127;BME280;57491;42.694;23.314;2023-04-04T03:11:29;93661.09;;;9.78;78.69
70127;BME280;57491;42.694;23.314;2023-04-04T03:13:56;93657.09;;;9.82;78.48
70127;BME280;57491;42.694;23.314;2023-04-04T03:16:24;93665.06;;;9.88;76.88
70127;BME280;57491;42.694;23.314;2023-04-04T03:18:51;93675.25;;;9.82;76.22
70127;BME280;57491;42.694;23.314;2023-04-04T03:21:18;93672.00;;;9.94;78.75
70127;BME280;57491;42.694;23.314;2023-04-04T03:23:46;93652.66;;;9.90;77.81
70127;BME280;57491;42.694;23.314;2023-04-04T03:26:14;93674.34;;;10.02;76.79
70127;BME280;57491;42.694;23.314;2023-04-04T03:28:41;93659.16;;;10.05;77.86
70127;BME280;57491;42.694;23.314;2023-04-04T03:31:08;93667.69;;;10.19;78.22
70127;BME280;57491;42.694;23.314;2023-04-04T03:33:35;93662.44;;;10.25;77.82
70127;BME280;57491;42.694;23.314;2023-04-04T03:36:03;93657.25;;;10.25;76.93
70127;BME280;57491;42.694;23.314;2023-04-04T03:38:35;93665.22;;;10.31;77.76
70127;BME280;57491;42.694;23.314;2023-04-04T03:41:03;93660.94;;;10.36;77.99
70127;BME280;57491;42.694;23.314;2023-04-04T03:43:32;93676.25;;;10.51;78.36
70127;BME280;57491;42.694;23.314;2023-04-04T03:45:59;93669.66;;;10.48;77.47
70127;BME280;57491;42.694;23.314;2023-04-04T03:48:28;93659.66;;;10.52;77.80
70127;BME280;57491;42.694;23.314;2023-04-04T03:50:55;93669.94;;;10.65;78.64
70127;BME280;57491;42.694;23.314;2023-04-04T03:53:23;93677.09;;;10.69;78.55
70127;BME280;57491;42.694;23.314;2023-04-04T03:55:50;93674.50;;;10.69;78.22
70127;BME280;57491;42.694;23.314;2023-04-04T03:58:18;93676.75;;;10.59;77.86
70127;BME280;57491;42.694;23.314;2023-04-04T04:00:46;93669.59;;;10.55;76.67
70127;BME280;57491;42.694;23.314;2023-04-04T04:03:13;93675.41;;;10.57;76.01
70127;BME280;57491;42.694;23.314;2023-04-04T04:05:40;93667.59;;;10.57;76.02
70127;BME280;57491;42.694;23.314;2023-04-04T04:08:07;93673.38;;;10.59;77.04
70127;BME280;57491;42.694;23.314;2023-04-04T04:10:34;93671.09;;;10.69;78.27
70127;BME280;57491;42.694;23.314;2023-04-04T04:13:01;93668.06;;;10.72;77.78
70127;BME280;57491;42.694;23.314;2023-04-04T04:15:29;93664.59;;;10.78;78.42
70127;BME280;57491;42.694;23.314;2023-04-04T04:17:57;93665.75;;;10.82;78.70
70127;BME280;57491;42.694;23.314;2023-04-04T04:20:24;93673.56;;;10.82;77.66
70127;BME280;57491;42.694;23.314;2023-04-04T04:22:51;93669.88;;;10.71;75.46
70127;BME280;57491;42.694;23.314;2023-04-04T04:25:18;93679.38;;;10.59;75.24
70127;BME280;57491;42.694;23.314;2023-04-04T04:27:45;93682.59;;;10.55;74.85
70127;BME280;57491;42.694;23.314;2023-04-04T04:30:12;93687.59;;;10.56;75.38
70127;BME280;57491;42.694;23.314;2023-04-04T04:32:40;93694.38;;;10.57;75.30
70127;BME280;57491;42.694;23.314;2023-04-04T04:35:08;93701.59;;;10.55;74.97
70127;BME280;57491;42.694;23.314;2023-04-04T04:37:35;93699.19;;;10.54;75.13
70127;BME280;57491;42.694;23.314;2023-04-04T04:40:03;93708.66;;;10.48;75.41
70127;BME280;57491;42.694;23.314;2023-04-04T04:42:31;93711.19;;;10.55;75.56
70127;BME280;57491;42.694;23.314;2023-04-04T04:44:58;93708.84;;;10.47;75.40
70127;BME280;57491;42.694;23.314;2023-04-04T04:47:25;93714.47;;;10.44;75.31
70127;BME280;57491;42.694;23.314;2023-04-04T04:49:52;93712.50;;;10.39;75.67
70127;BME280;57491;42.694;23.314;2023-04-04T04:52:20;93720.78;;;10.29;75.88
70127;BME280;57491;42.694;23.314;2023-04-04T04:54:47;93712.19;;;10.22;76.18
70127;BME280;57491;42.694;23.314;2023-04-04T04:57:15;93719.78;;;10.24;76.30
70127;BME280;57491;42.694;23.314;2023-04-04T04:59:43;93708.88;;;10.15;76.36
70127;BME280;57491;42.694;23.314;2023-04-04T05:02:11;93725.97;;;10.29;76.09
70127;BME280;57491;42.694;23.314;2023-04-04T05:04:38;93731.16;;;10.29;77.00
70127;BME280;57491;42.694;23.314;2023-04-04T05:07:05;93735.34;;;10.31;76.98
70127;BME280;57491;42.694;23.314;2023-04-04T05:09:34;93734.19;;;10.26;76.56
70127;BME280;57491;42.694;23.314;2023-04-04T05:12:02;93739.94;;;10.28;77.08
70127;BME280;57491;42.694;23.314;2023-04-04T05:14:29;93730.81;;;10.51;79.77
70127;BME280;57491;42.694;23.314;2023-04-04T05:16:56;93738.34;;;10.59;76.75
70127;BME280;57491;42.694;23.314;2023-04-04T05:19:23;93742.97;;;10.57;76.23
70127;BME280;57491;42.694;23.314;2023-04-04T05:21:51;93741.97;;;10.58;76.77
70127;BME280;57491;42.694;23.314;2023-04-04T05:24:18;93741.88;;;10.71;78.19
70127;BME280;57491;42.694;23.314;2023-04-04T05:26:49;93754.31;;;10.87;75.96
70127;BME280;57491;42.694;23.314;2023-04-04T05:29:16;93744.09;;;10.92;75.03
70127;BME280;57491;42.694;23.314;2023-04-04T05:31:46;93742.84;;;10.95;74.92
70127;BME280;57491;42.694;23.314;2023-04-04T05:34:13;93736.66;;;10.96;74.73
70127;BME280;57491;42.694;23.314;2023-04-04T05:36:40;93733.78;;;11.04;75.20
70127;BME280;57491;42.694;23.314;2023-04-04T05:39:07;93762.13;;;11.30;75.25
70127;BME280;57491;42.694;23.314;2023-04-04T05:41:34;93764.59;;;11.25;72.99
70127;BME280;57491;42.694;23.314;2023-04-04T05:44:04;93762.25;;;11.17;72.88
70127;BME280;57491;42.694;23.314;2023-04-04T05:46:31;93761.84;;;11.20;73.64
70127;BME280;57491;42.694;23.314;2023-04-04T05:48:58;93748.59;;;11.22;73.52
70127;BME280;57491;42.694;23.314;2023-04-04T05:51:25;93761.44;;;11.41;73.28
70127;BME280;57491;42.694;23.314;2023-04-04T05:53:52;93764.69;;;11.55;73.26
70127;BME280;57491;42.694;23.314;2023-04-04T05:56:19;93767.16;;;11.68;72.24
70127;BME280;57491;42.694;23.314;2023-04-04T05:58:46;93756.84;;;11.80;72.34
70127;BME280;57491;42.694;23.314;2023-04-04T06:01:15;93762.94;;;11.92;72.08
70127;BME280;57491;42.694;23.314;2023-04-04T06:03:43;93742.00;;;11.80;71.36
70127;BME280;57491;42.694;23.314;2023-04-04T06:06:10;93762.91;;;12.10;70.78
70127;BME280;57491;42.694;23.314;2023-04-04T06:08:37;93763.03;;;12.15;70.55
70127;BME280;57491;42.694;23.314;2023-04-04T06:11:04;93772.81;;;12.20;71.51
70127;BME280;57491;42.694;23.314;2023-04-04T06:13:31;93771.03;;;12.32;70.78
70127;BME280;57491;42.694;23.314;2023-04-04T06:15:58;93775.06;;;12.46;70.24
70127;BME280;57491;42.694;23.314;2023-04-04T06:18:27;93783.34;;;12.55;69.28
70127;BME280;57491;42.694;23.314;2023-04-04T06:20:54;93783.16;;;12.56;68.72
70127;BME280;57491;42.694;23.314;2023-04-04T06:23:21;93782.53;;;12.42;68.20
70127;BME280;57491;42.694;23.314;2023-04-04T06:25:48;93774.56;;;12.37;69.49
70127;BME280;57491;42.694;23.314;2023-04-04T06:28:15;93782.88;;;12.46;69.24
70127;BME280;57491;42.694;23.314;2023-04-04T06:30:43;93789.22;;;12.50;68.68
70127;BME280;57491;42.694;23.314;2023-04-04T06:33:10;93804.59;;;12.10;68.24
70127;BME280;57491;42.694;23.314;2023-04-04T06:35:38;93808.38;;;11.71;65.80
70127;BME280;57491;42.694;23.314;2023-04-04T06:38:05;93817.84;;;11.23;63.78
70127;BME280;57491;42.694;23.314;2023-04-04T06:40:33;93822.28;;;10.28;64.15
70127;BME280;57491;42.694;23.314;2023-04-04T06:43:00;93823.31;;;10.14;65.22
70127;BME280;57491;42.694;23.314;2023-04-04T06:45:28;93840.53;;;10.08;67.07
70127;BME280;57491;42.694;23.314;2023-04-04T06:47:58;93837.59;;;9.85;66.24
70127;BME280;57491;42.694;23.314;2023-04-04T06:50:28;93846.84;;;9.41;65.88
70127;BME280;57491;42.694;23.314;2023-04-04T06:52:59;93848.47;;;8.96;65.44
70127;BME280;57491;42.694;23.314;2023-04-04T06:55:26;93853.59;;;8.50;66.70
70127;BME280;57491;42.694;23.314;2023-04-04T06:57:54;93856.66;;;8.26;68.14
70127;BME280;57491;42.694;23.314;2023-04-04T07:00:21;93847.28;;;8.19;68.68
70127;BME280;57491;42.694;23.314;2023-04-04T07:02:48;93861.91;;;8.33;68.12
70127;BME280;57491;42.694;23.314;2023-04-04T07:05:15;93881.09;;;8.11;67.56
70127;BME280;57491;42.694;23.314;2023-04-04T07:07:43;93888.09;;;8.10;67.85
70127;BME280;57491;42.694;23.314;2023-04-04T07:10:12;93880.72;;;7.73;66.23
70127;BME280;57491;42.694;23.314;2023-04-04T07:12:39;93898.50;;;7.82;67.73
70127;BME280;57491;42.694;23.314;2023-04-04T07:15:07;93901.66;;;7.50;66.70
70127;BME280;57491;42.694;23.314;2023-04-04T07:17:36;93911.28;;;7.35;67.71
70127;BME280;57491;42.694;23.314;2023-04-04T07:20:04;93919.59;;;7.30;67.63
70127;BME280;57491;42.694;23.314;2023-04-04T07:22:31;93924.16;;;7.28;67.67
70127;BME280;57491;42.694;23.314;2023-04-04T07:24:58;93931.13;;;7.28;68.07
70127;BME280;57491;42.694;23.314;2023-04-04T07:27:26;93936.78;;;7.38;67.53
70127;BME280;57491;42.694;23.314;2023-04-04T07:29:53;93936.38;;;7.13;66.76
70127;BME280;57491;42.694;23.314;2023-04-04T07:32:21;93951.31;;;6.75;66.99
70127;BME280;57491;42.694;23.314;2023-04-04T07:34:49;93942.41;;;6.63;68.06
70127;BME280;57491;42.694;23.314;2023-04-04T07:37:17;93954.91;;;6.59;69.06
70127;BME280;57491;42.694;23.314;2023-04-04T07:39:44;93957.47;;;6.74;69.25
70127;BME280;57491;42.694;23.314;2023-04-04T07:42:12;93959.91;;;6.82;67.79
70127;BME280;57491;42.694;23.314;2023-04-04T07:44:40;93957.38;;;6.67;67.28
70127;BME280;57491;42.694;23.314;2023-04-04T07:47:08;93948.88;;;6.52;68.40
70127;BME280;57491;42.694;23.314;2023-04-04T07:49:35;93965.41;;;6.58;67.22
70127;BME280;57491;42.694;23.314;2023-04-04T07:52:02;93975.13;;;6.56;66.77
70127;BME280;57491;42.694;23.314;2023-04-04T07:54:30;93969.41;;;6.75;67.11
70127;BME280;57491;42.694;23.314;2023-04-04T07:56:57;93964.28;;;6.82;66.31
70127;BME280;57491;42.694;23.314;2023-04-04T07:59:23;93966.56;;;6.91;67.23
70127;BME280;57491;42.694;23.314;2023-04-04T08:01:52;93981.03;;;7.07;64.62
70127;BME280;57491;42.694;23.314;2023-04-04T08:04:19;93976.88;;;7.06;64.69
70127;BME280;57491;42.694;23.314;2023-04-04T08:06:46;93998.41;;;7.13;64.52
70127;BME280;57491;42.694;23.314;2023-04-04T08:09:13;93997.03;;;6.96;64.73
70127;BME280;57491;42.694;23.314;2023-04-04T08:11:40;93992.28;;;6.78;65.00
70127;BME280;57491;42.694;23.314;2023-04-04T08:14:08;94008.69;;;6.70;64.62
70127;BME280;57491;42.694;23.314;2023-04-04T08:16:36;94004.22;;;6.79;67.40
70127;BME280;57491;42.694;23.314;2023-04-04T08:19:05;94008.63;;;6.85;65.22
70127;BME280;57491;42.694;23.314;2023-04-04T08:21:33;94013.66;;;7.08;65.91
70127;BME280;57491;42.694;23.314;2023-04-04T08:24:00;94018.25;;;7.12;64.35
70127;BME280;57491;42.694;23.314;2023-04-04T08:26:27;94017.31;;;6.99;64.70
70127;BME280;57491;42.694;23.314;2023-04-04T08:28:55;94017.97;;;7.01;64.23
70127;BME280;57491;42.694;23.314;2023-04-04T08:31:22;94014.81;;;7.05;64.07
70127;BME280;57491;42.694;23.314;2023-04-04T08:33:50;94026.16;;;6.90;63.37
70127;BME280;57491;42.694;23.314;2023-04-04T08:36:19;94028.97;;;6.88;64.68
70127;BME280;57491;42.694;23.314;2023-04-04T08:38:47;94033.47;;;7.01;63.81
70127;BME280;57491;42.694;23.314;2023-04-04T08:41:15;94023.63;;;7.11;64.89
70127;BME280;57491;42.694;23.314;2023-04-04T08:43:43;94035.22;;;7.15;62.52
70127;BME280;57491;42.694;23.314;2023-04-04T08:46:12;94041.81;;;7.03;62.63
70127;BME280;57491;42.694;23.314;2023-04-04T08:48:41;94039.34;;;6.95;62.37
70127;BME280;57491;42.694;23.314;2023-04-04T08:51:10;94042.47;;;6.90;63.00
70127;BME280;57491;42.694;23.314;2023-04-04T08:53:41;94046.34;;;6.80;62.69
70127;BME280;57491;42.694;23.314;2023-04-04T08:56:08;94049.69;;;6.95;65.15
70127;BME280;57491;42.694;23.314;2023-04-04T08:58:36;94060.50;;;7.20;65.98
70127;BME280;57491;42.694;23.314;2023-04-04T09:01:04;94061.34;;;7.05;63.23
70127;BME280;57491;42.694;23.314;2023-04-04T09:03:32;94064.34;;;6.58;63.10
70127;BME280;57491;42.694;23.314;2023-04-04T09:06:03;94066.84;;;6.52;65.00
70127;BME280;57491;42.694;23.314;2023-04-04T09:08:31;94054.91;;;6.51;65.59
70127;BME280;57491;42.694;23.314;2023-04-04T09:11:01;94065.56;;;6.62;65.08
70127;BME280;57491;42.694;23.314;2023-04-04T09:13:29;94078.50;;;6.62;63.33
70127;BME280;57491;42.694;23.314;2023-04-04T09:15:57;94069.34;;;6.60;64.16
70127;BME280;57491;42.694;23.314;2023-04-04T09:18:27;94073.63;;;6.53;64.67
70127;BME280;57491;42.694;23.314;2023-04-04T09:20:54;94080.19;;;6.41;64.04
70127;BME280;57491;42.694;23.314;2023-04-04T09:23:22;94084.38;;;6.42;64.33
70127;BME280;57491;42.694;23.314;2023-04-04T09:25:51;94080.81;;;6.43;63.96
70127;BME280;57491;42.694;23.314;2023-04-04T09:28:21;94072.09;;;6.58;63.76
70127;BME280;57491;42.694;23.314;2023-04-04T09:30:50;94080.03;;;6.57;63.64
70127;BME280;57491;42.694;23.314;2023-04-04T09:33:20;94072.09;;;6.73;64.51
70127;BME280;57491;42.694;23.314;2023-04-04T09:35:50;94076.44;;;6.87;62.83
70127;BME280;57491;42.694;23.314;2023-04-04T09:38:20;94088.56;;;6.87;63.35
70127;BME280;57491;42.694;23.314;2023-04-04T09:40:48;94078.66;;;6.90;62.75
70127;BME280;57491;42.694;23.314;2023-04-04T09:43:17;94079.81;;;6.88;61.91
70127;BME280;57491;42.694;23.314;2023-04-04T09:45:48;94096.56;;;6.92;63.45
70127;BME280;57491;42.694;23.314;2023-04-04T09:48:24;94081.50;;;6.95;62.64
70127;BME280;57491;42.694;23.314;2023-04-04T09:50:52;94102.41;;;7.15;63.25
70127;BME280;57491;42.694;23.314;2023-04-04T09:53:19;94095.53;;;7.07;62.91
70127;BME280;57491;42.694;23.314;2023-04-04T09:55:51;94086.66;;;6.95;62.06
70127;BME280;57491;42.694;23.314;2023-04-04T09:58:23;94106.78;;;7.00;61.03
70127;BME280;57491;42.694;23.314;2023-04-04T10:00:53;94088.69;;;7.14;63.15
70127;BME280;57491;42.694;23.314;2023-04-04T10:03:22;94090.31;;;7.37;62.50
70127;BME280;57491;42.694;23.314;2023-04-04T10:05:59;94090.66;;;7.70;65.96
70127;BME280;57491;42.694;23.314;2023-04-04T10:08:28;94073.94;;;7.72;60.89
70127;BME280;57491;42.694;23.314;2023-04-04T10:10:57;94091.94;;;7.59;58.49
70127;BME280;57491;42.694;23.314;2023-04-04T10:13:26;94097.97;;;7.66;57.47
70127;BME280;57491;42.694;23.314;2023-04-04T10:15:55;94098.50;;;7.61;58.69
70127;BME280;57491;42.694;23.314;2023-04-04T10:18:23;94104.56;;;7.47;57.73
70127;BME280;57491;42.694;23.314;2023-04-04T10:20:52;94104.66;;;7.39;57.81
70127;BME280;57491;42.694;23.314;2023-04-04T10:23:20;94098.25;;;7.35;59.88
70127;BME280;57491;42.694;23.314;2023-04-04T10:25:48;94076.13;;;7.47;64.04
70127;BME280;57491;42.694;23.314;2023-04-04T10:28:16;94117.44;;;7.83;57.48
70127;BME280;57491;42.694;23.314;2023-04-04T10:30:48;94113.19;;;7.97;59.55
70127;BME280;57491;42.694;23.314;2023-04-04T10:33:22;94123.38;;;8.26;59.89
70127;BME280;57491;42.694;23.314;2023-04-04T10:35:56;94121.41;;;8.28;60.77
70127;BME280;57491;42.694;23.314;2023-04-04T10:38:27;94130.22;;;8.34;58.12
70127;BME280;57491;42.694;23.314;2023-04-04T10:40:57;94131.28;;;8.18;58.21
70127;BME280;57491;42.694;23.314;2023-04-04T10:43:25;94130.09;;;8.21;57.77
70127;BME280;57491;42.694;23.314;2023-04-04T10:45:53;94132.59;;;7.86;57.26
70127;BME280;57491;42.694;23.314;2023-04-04T10:48:23;94129.06;;;7.94;58.81
70127;BME280;57491;42.694;23.314;2023-04-04T10:50:52;94138.91;;;8.26;60.91
70127;BME280;57491;42.694;23.314;2023-04-04T10:53:21;94137.19;;;8.12;57.20
70127;BME280;57491;42.694;23.314;2023-04-04T10:55:48;94146.72;;;8.05;58.02
70127;BME280;57491;42.694;23.314;2023-04-04T10:58:16;94136.59;;;7.68;57.58
70127;BME280;57491;42.694;23.314;2023-04-04T11:00:50;94150.91;;;7.49;59.58
70127;BME280;57491;42.694;23.314;2023-04-04T11:03:19;94150.94;;;7.70;63.74
70127;BME280;57491;42.694;23.314;2023-04-04T11:05:48;94150.16;;;7.70;59.75
70127;BME280;57491;42.694;23.314;2023-04-04T11:08:22;94154.22;;;7.79;61.09
70127;BME280;57491;42.694;23.314;2023-04-04T11:10:51;94157.78;;;7.99;63.83
70127;BME280;57491;42.694;23.314;2023-04-04T11:13:25;94143.66;;;8.01;57.89
70127;BME280;57491;42.694;23.314;2023-04-04T11:15:55;94139.97;;;7.68;58.19
70127;BME280;57491;42.694;23.314;2023-04-04T11:18:45;94166.66;;;7.69;59.23
70127;BME280;57491;42.694;23.314;2023-04-04T11:21:16;94173.31;;;7.42;59.67
70127;BME280;57491;42.694;23.314;2023-04-04T11:24:14;94164.38;;;7.44;61.18
70127;BME280;57491;42.694;23.314;2023-04-04T11:26:42;94158.94;;;7.54;60.78
70127;BME280;57491;42.694;23.314;2023-04-04T11:29:11;94175.78;;;7.65;61.75
70127;BME280;57491;42.694;23.314;2023-04-04T11:31:47;94164.31;;;7.74;65.19
70127;BME280;57491;42.694;23.314;2023-04-04T11:34:28;94168.16;;;7.78;60.15
70127;BME280;57491;42.694;23.314;2023-04-04T11:36:57;94176.75;;;7.85;61.58
70127;BME280;57491;42.694;23.314;2023-04-04T11:39:27;94170.06;;;7.69;60.88
70127;BME280;57491;42.694;23.314;2023-04-04T11:41:59;94180.53;;;7.46;60.59
70127;BME280;57491;42.694;23.314;2023-04-04T11:44:29;94189.06;;;7.11;62.92
70127;BME280;57491;42.694;23.314;2023-04-04T11:47:01;94174.25;;;7.20;62.95
70127;BME280;57491;42.694;23.314;2023-04-04T11:49:32;94175.88;;;7.06;61.87
70127;BME280;57491;42.694;23.314;2023-04-04T11:52:04;94190.63;;;7.27;62.74
70127;BME280;57491;42.694;23.314;2023-04-04T11:54:33;94179.84;;;7.38;61.72
70127;BME280;57491;42.694;23.314;2023-04-04T11:57:00;94191.28;;;7.65;67.17
70127;BME280;57491;42.694;23.314;2023-04-04T11:59:28;94185.44;;;7.56;61.01
70127;BME280;57491;42.694;23.314;2023-04-04T12:01:56;94191.88;;;7.45;60.21
70127;BME280;57491;42.694;23.314;2023-04-04T12:04:24;94186.16;;;7.21;60.63
70127;BME280;57491;42.694;23.314;2023-04-04T12:06:53;94181.75;;;7.00;60.87
70127;BME280;57491;42.694;23.314;2023-04-04T12:09:24;94185.75;;;6.73;63.20
70127;BME280;57491;42.694;23.314;2023-04-04T12:11:53;94184.75;;;6.59;61.32
70127;BME280;57491;42.694;23.314;2023-04-04T12:14:22;94196.81;;;6.44;62.07
70127;BME280;57491;42.694;23.314;2023-04-04T12:16:51;94198.47;;;6.60;64.28
70127;BME280;57491;42.694;23.314;2023-04-04T12:19:21;94193.66;;;6.57;62.47
70127;BME280;57491;42.694;23.314;2023-04-04T12:21:49;94191.06;;;6.71;65.43
70127;BME280;57491;42.694;23.314;2023-04-04T12:24:16;94180.94;;;6.70;61.52
70127;BME280;57491;42.694;23.314;2023-04-04T12:26:47;94196.25;;;6.86;62.31
70127;BME280;57491;42.694;23.314;2023-04-04T12:29:16;94195.13;;;6.89;63.25
70127;BME280;57491;42.694;23.314;2023-04-04T12:31:44;94192.59;;;6.81;61.32
70127;BME280;57491;42.694;23.314;2023-04-04T12:34:15;94203.47;;;6.91;65.98
70127;BME280;57491;42.694;23.314;2023-04-04T12:36:46;94201.59;;;6.85;61.99
70127;BME280;57491;42.694;23.314;2023-04-04T12:39:15;94199.72;;;6.64;61.83
70127;BME280;57491;42.694;23.314;2023-04-04T12:41:52;94216.94;;;6.49;61.82
70127;BME280;57491;42.694;23.314;2023-04-04T12:44:28;94205.97;;;6.32;62.92
70127;BME280;57491;42.694;23.314;2023-04-04T12:46:56;94214.75;;;6.23;63.13
70127;BME280;57491;42.694;23.314;2023-04-04T12:49:27;94212.84;;;6.17;62.64
70127;BME280;57491;42.694;23.314;2023-04-04T12:51:56;94202.38;;;5.96;64.61
70127;BME280;57491;42.694;23.314;2023-04-04T12:54:26;94215.78;;;6.14;63.72
70127;BME280;57491;42.694;23.314;2023-04-04T12:56:56;94223.19;;;5.94;63.57
70127;BME280;57491;42.694;23.314;2023-04-04T12:59:27;94223.75;;;5.73;64.69
70127;BME280;57491;42.694;23.314;2023-04-04T13:01:54;94232.72;;;5.85;64.83
70127;BME280;57491;42.694;23.314;2023-04-04T13:04:22;94215.78;;;5.91;64.33